Time;durP1;ratioP1;P1;durP2;ratioP2;P2;SDS_P1;SDS_P2;PMS_P1;PMS_P2;Temp;Humidity;BMP_temperature;BMP_pressure;BME280_temperature;BME280_humidity;BME280_pressure;Samples;Min_cycle;Max_cycle;Signal;HPM_P1;HPM_P2
2023/04/04 00:00:50;;;;;;;;;;;;;;;7.02;100.00;101365.88;4863887;29;19924;-74
2023/04/04 00:03:19;;;;;;;;;;;;;;;7.04;100.00;101374.50;4861717;29;20357;-75
2023/04/04 00:05:47;;;;;;;;;;;;;;;7.01;100.00;101374.69;4889873;29;19972;-74
2023/04/04 00:08:17;;;;;;;;;;;;;;;6.98;100.00;101377.50;4850952;29;20003;-74
2023/04/04 00:10:45;;;;;;;;;;;;;;;7.01;100.00;101369.44;4855617;29;19916;-74
2023/04/04 00:13:13;;;;;;;;;;;;;;;7.01;100.00;101379.09;4878614;29;19920;-77
2023/04/04 00:15:43;;;;;;;;;;;;;;;7.00;100.00;101380.91;4883288;29;19927;-77
2023/04/04 00:18:13;;;;;;;;;;;;;;;7.01;100.00;101379.94;4849205;29;19921;-76
2023/04/04 00:20:42;;;;;;;;;;;;;;;7.00;100.00;101374.78;4847340;29;20041;-77
2023/04/04 00:23:12;;;;;;;;;;;;;;;7.01;100.00;101377.31;4849674;29;19926;-77
2023/04/04 00:25:42;;;;;;;;;;;;;;;6.99;100.00;101379.19;4878521;29;19977;-77
2023/04/04 00:28:12;;;;;;;;;;;;;;;7.00;100.00;101378.28;4875272;29;19921;-77
2023/04/04 00:30:41;;;;;;;;;;;;;;;7.00;100.00;101380.03;4887481;29;19917;-77
2023/04/04 00:33:09;;;;;;;;;;;;;;;6.97;100.00;101386.34;4880649;29;19920;-77
2023/04/04 00:35:38;;;;;;;;;;;;;;;6.96;100.00;101379.38;4844180;29;20309;-77
2023/04/04 00:38:06;;;;;;;;;;;;;;;6.95;100.00;101377.72;4854149;29;20417;-77
2023/04/04 00:40:40;;;;;;;;;;;;;;;6.96;100.00;101382.00;4850852;29;20358;-77
2023/04/04 00:43:08;;;;;;;;;;;;;;;6.94;100.00;101383.91;4846373;29;19916;-77
2023/04/04 00:45:37;;;;;;;;;;;;;;;6.93;100.00;101369.91;4890102;29;19919;-77
2023/04/04 00:48:05;;;;;;;;;;;;;;;6.92;100.00;101377.91;4882993;29;19972;-77
2023/04/04 00:50:32;;;;;;;;;;;;;;;6.92;100.00;101376.13;4818206;29;19969;-77
2023/04/04 00:53:00;;;;;;;;;;;;;;;6.92;100.00;101380.53;4876145;29;19920;-77
2023/04/04 00:55:29;;;;;;;;;;;;;;;6.90;100.00;101369.25;4882589;29;19920;-77
2023/04/04 00:57:58;;;;;;;;;;;;;;;6.86;100.00;101368.63;4886001;29;19920;-77
2023/04/04 01:00:26;;;;;;;;;;;;;;;6.87;100.00;101369.47;4872757;29;19931;-77
2023/04/04 01:02:54;;;;;;;;;;;;;;;6.87;100.00;101370.31;4856324;29;19928;-75
2023/04/04 01:05:22;;;;;;;;;;;;;;;6.87;100.00;101367.69;4869141;29;19926;-74
2023/04/04 01:07:51;;;;;;;;;;;;;;;6.88;100.00;101371.16;4882391;29;19923;-74
2023/04/04 01:10:19;;;;;;;;;;;;;;;6.86;100.00;101363.38;4874941;29;19966;-74
2023/04/04 01:12:48;;;;;;;;;;;;;;;6.86;100.00;101359.91;4883208;29;19916;-74
2023/04/04 01:15:18;;;;;;;;;;;;;;;6.86;100.00;101360.75;4878297;29;19919;-75
2023/04/04 01:17:46;;;;;;;;;;;;;;;6.88;100.00;101363.28;4861861;29;19916;-74
2023/04/04 01:20:15;;;;;;;;;;;;;;;6.88;100.00;101365.91;4884574;29;19924;-74
2023/04/04 01:22:50;;;;;;;;;;;;;;;6.90;100.00;101358.75;4870883;29;20367;-74
2023/04/04 01:25:31;;;;;;;;;;;;;;;6.90;100.00;101359.59;4867102;29;19989;-74
2023/04/04 01:28:05;;;;;;;;;;;;;;;6.91;100.00;101355.19;4867779;29;19955;-74
2023/04/04 01:30:35;;;;;;;;;;;;;;;6.92;100.00;101349.00;4866938;29;19924;-74
2023/04/04 01:33:23;;;;;;;;;;;;;;;6.91;100.00;101350.78;4885435;29;19927;-74
2023/04/04 01:36:03;;;;;;;;;;;;;;;6.94;100.00;101349.75;4864148;29;19916;-74
2023/04/04 01:38:49;;;;;;;;;;;;;;;6.92;100.00;101344.59;4870636;29;19967;-75
2023/04/04 01:41:20;;;;;;;;;;;;;;;6.92;100.00;101341.09;4871078;29;20006;-74
2023/04/04 01:43:56;;;;;;;;;;;;;;;6.94;100.00;101352.38;4877235;29;19926;-74
2023/04/04 01:46:27;;;;;;;;;;;;;;;6.93;100.00;101348.03;4879223;29;20277;-74
2023/04/04 01:48:57;;;;;;;;;;;;;;;6.93;100.00;101338.38;4879933;29;19916;-74
2023/04/04 01:51:30;;;;;;;;;;;;;;;6.92;100.00;101341.09;4810783;29;19932;-74
2023/04/04 01:53:58;;;;;;;;;;;;;;;6.92;100.00;101341.97;4882573;29;19923;-74
2023/04/04 01:56:26;;;;;;;;;;;;;;;6.94;100.00;101333.97;4882359;29;20003;-74
2023/04/04 01:58:53;;;;;;;;;;;;;;;6.95;100.00;101330.41;4879177;29;19928;-74
2023/04/04 02:01:21;;;;;;;;;;;;;;;6.95;100.00;101336.50;4862795;29;20685;-74
2023/04/04 02:03:49;;;;;;;;;;;;;;;6.98;100.00;101331.97;4884025;29;20206;-75
2023/04/04 02:06:18;;;;;;;;;;;;;;;6.97;100.00;101331.16;4877128;29;19917;-75
2023/04/04 02:08:46;;;;;;;;;;;;;;;6.97;100.00;101328.53;4847866;29;19924;-74
2023/04/04 02:11:15;;;;;;;;;;;;;;;6.98;100.00;101326.72;4880569;29;19920;-75
2023/04/04 02:13:43;;;;;;;;;;;;;;;6.98;100.00;101326.72;4864282;29;19916;-74
2023/04/04 02:16:14;;;;;;;;;;;;;;;6.97;100.00;101327.66;4888807;29;19916;-75
2023/04/04 02:18:43;;;;;;;;;;;;;;;6.93;100.00;101319.97;4881005;29;20008;-74
2023/04/04 02:21:11;;;;;;;;;;;;;;;6.91;100.00;101318.41;4847695;29;20368;-75
2023/04/04 02:23:41;;;;;;;;;;;;;;;6.90;100.00;101316.69;4845820;29;19972;-74
2023/04/04 02:26:08;;;;;;;;;;;;;;;6.86;100.00;101316.06;4864935;29;20432;-75
2023/04/04 02:28:38;;;;;;;;;;;;;;;6.87;100.00;101314.28;4882540;29;19923;-74
2023/04/04 02:31:06;;;;;;;;;;;;;;;6.87;100.00;101311.63;4860284;29;19924;-75
2023/04/04 02:33:34;;;;;;;;;;;;;;;6.86;100.00;101321.34;4874369;29;20281;-75
2023/04/04 02:36:04;;;;;;;;;;;;;;;6.88;100.00;101310.72;4862967;29;19916;-75
2023/04/04 02:38:33;;;;;;;;;;;;;;;6.87;100.00;101306.38;4863486;29;19932;-75
2023/04/04 02:41:04;;;;;;;;;;;;;;;6.85;100.00;101309.13;4878490;29;19924;-75
2023/04/04 02:43:33;;;;;;;;;;;;;;;6.84;100.00;101310.06;4857792;29;19924;-75
2023/04/04 02:46:06;;;;;;;;;;;;;;;6.86;100.00;101309.97;4865930;29;20006;-75
2023/04/04 02:48:35;;;;;;;;;;;;;;;6.86;100.00;101305.56;4875873;29;19916;-75
2023/04/04 02:51:03;;;;;;;;;;;;;;;6.87;100.00;101311.63;4866134;29;19964;-75
2023/04/04 02:53:32;;;;;;;;;;;;;;;6.87;100.00;101306.38;4871597;29;19974;-75
2023/04/04 02:56:12;;;;;;;;;;;;;;;6.85;100.00;101297.78;4879430;29;20384;-75
2023/04/04 02:58:39;;;;;;;;;;;;;;;6.85;100.00;101300.41;4862624;29;19928;-75
2023/04/04 03:01:09;;;;;;;;;;;;;;;6.84;100.00;101302.19;4883066;29;20337;-75
2023/04/04 03:03:40;;;;;;;;;;;;;;;6.83;100.00;101298.69;4842186;29;19916;-75
2023/04/04 03:06:10;;;;;;;;;;;;;;;6.83;100.00;101300.50;4865337;29;19923;-75
2023/04/04 03:08:40;;;;;;;;;;;;;;;6.85;100.00;101300.41;4864074;29;20331;-75
2023/04/04 03:11:09;;;;;;;;;;;;;;;6.87;100.00;101304.63;4864289;29;19920;-75
2023/04/04 03:13:38;;;;;;;;;;;;;;;6.85;100.00;101292.53;4875659;29;19923;-75
2023/04/04 03:16:06;;;;;;;;;;;;;;;6.85;100.00;101297.78;4843724;29;20027;-75
2023/04/04 03:18:45;;;;;;;;;;;;;;;6.85;100.00;101309.13;4869024;29;20428;-74
2023/04/04 03:21:13;;;;;;;;;;;;;;;6.85;100.00;101306.47;4881039;29;19920;-75
2023/04/04 03:23:43;;;;;;;;;;;;;;;6.86;100.00;101305.56;4852470;29;20016;-75
2023/04/04 03:26:12;;;;;;;;;;;;;;;6.87;100.00;101303.75;4885763;29;19928;-75
2023/04/04 03:28:39;;;;;;;;;;;;;;;6.88;100.00;101301.03;4840981;29;19920;-75
2023/04/04 03:31:10;;;;;;;;;;;;;;;6.89;100.00;101297.47;4861344;29;19916;-75
2023/04/04 03:33:41;;;;;;;;;;;;;;;6.88;100.00;101293.16;4881605;29;19946;-75
2023/04/04 03:36:11;;;;;;;;;;;;;;;6.86;100.00;101284.53;4796690;29;20377;-75
2023/04/04 03:38:40;;;;;;;;;;;;;;;6.85;100.00;101284.63;4865681;29;20315;-75
2023/04/04 03:41:07;;;;;;;;;;;;;;;6.82;100.00;101278.63;4871471;29;19924;-75
2023/04/04 03:43:36;;;;;;;;;;;;;;;6.83;100.00;101279.47;4851947;29;19920;-75
2023/04/04 03:46:05;;;;;;;;;;;;;;;6.82;100.00;101277.78;4856456;29;19916;-75
2023/04/04 03:48:33;;;;;;;;;;;;;;;6.82;100.00;101278.63;4884271;29;19916;-75
2023/04/04 03:51:05;;;;;;;;;;;;;;;6.86;100.00;101279.28;4884950;29;20523;-75
2023/04/04 03:53:34;;;;;;;;;;;;;;;6.88;100.00;101279.19;4876873;29;19920;-74
2023/04/04 03:56:03;;;;;;;;;;;;;;;6.86;100.00;101271.41;4888031;29;19916;-75
2023/04/04 03:58:31;;;;;;;;;;;;;;;6.87;100.00;101274.84;4883695;29;20369;-75
2023/04/04 04:00:58;;;;;;;;;;;;;;;6.91;100.00;101281.63;4864673;29;19946;-75
2023/04/04 04:03:30;;;;;;;;;;;;;;;6.89;100.00;101288.75;4881540;29;19927;-75
2023/04/04 04:05:59;;;;;;;;;;;;;;;6.90;100.00;101279.91;4869404;29;20006;-75
2023/04/04 04:08:28;;;;;;;;;;;;;;;6.90;100.00;101282.53;4880771;29;19963;-75
2023/04/04 04:10:56;;;;;;;;;;;;;;;6.90;100.00;101279.91;4855118;29;19916;-75
2023/04/04 04:13:25;;;;;;;;;;;;;;;6.90;100.00;101285.16;4884574;29;20412;-75
2023/04/04 04:15:54;;;;;;;;;;;;;;;6.89;100.00;101283.50;4886421;29;19966;-75
2023/04/04 04:18:22;;;;;;;;;;;;;;;6.86;100.00;101271.41;4882318;29;19916;-75
2023/04/04 04:20:55;;;;;;;;;;;;;;;6.87;100.00;101272.22;4867409;29;19921;-75
2023/04/04 04:23:23;;;;;;;;;;;;;;;6.86;100.00;101270.56;4884725;29;19924;-75
2023/04/04 04:25:52;;;;;;;;;;;;;;;6.84;100.00;101273.28;4854456;29;19924;-75
2023/04/04 04:28:25;;;;;;;;;;;;;;;6.83;100.00;101266.34;4866884;29;20007;-75
2023/04/04 04:30:54;;;;;;;;;;;;;;;6.83;100.00;101261.91;4850226;29;19968;-74
2023/04/04 04:33:30;;;;;;;;;;;;;;;6.82;100.00;101265.50;4888232;29;19939;-74
2023/04/04 04:36:03;;;;;;;;;;;;;;;6.81;100.00;101260.34;4855613;29;19923;-75
2023/04/04 04:38:41;;;;;;;;;;;;;;;6.83;100.00;101261.91;4857164;29;20458;-75
2023/04/04 04:41:11;;;;;;;;;;;;;;;6.87;100.00;101265.19;4870232;29;19950;-74
2023/04/04 04:43:46;;;;;;;;;;;;;;;6.91;100.00;101265.84;4864683;29;20015;-75
2023/04/04 04:46:16;;;;;;;;;;;;;;;6.94;100.00;101257.75;4885833;29;19920;-75
2023/04/04 04:48:45;;;;;;;;;;;;;;;6.95;100.00;101259.44;4869952;29;19969;-75
2023/04/04 04:51:14;;;;;;;;;;;;;;;6.95;100.00;101262.06;4866484;29;19923;-75
2023/04/04 04:53:45;;;;;;;;;;;;;;;6.97;100.00;101254.94;4882634;29;20395;-74
2023/04/04 04:56:13;;;;;;;;;;;;;;;6.95;100.00;101252.41;4882965;29;19916;-74
2023/04/04 04:58:44;;;;;;;;;;;;;;;6.95;100.00;101241.88;4880455;29;19984;-75
2023/04/04 05:01:20;;;;;;;;;;;;;;;6.97;100.00;101247.03;4878776;29;20380;-74
2023/04/04 05:03:48;;;;;;;;;;;;;;;7.00;100.00;101252.09;4878661;29;19916;-74
2023/04/04 05:06:22;;;;;;;;;;;;;;;7.01;100.00;101255.53;4858814;29;20667;-74
2023/04/04 05:08:51;;;;;;;;;;;;;;;7.04;100.00;101255.38;4860186;29;20050;-74
2023/04/04 05:11:26;;;;;;;;;;;;;;;7.08;100.00;101270.00;4863009;29;20507;-74
2023/04/04 05:13:54;;;;;;;;;;;;;;;7.11;100.00;101268.94;4847807;29;20615;-74
2023/04/04 05:16:24;;;;;;;;;;;;;;;7.14;100.00;101268.72;4848321;29;19924;-74
2023/04/04 05:18:57;;;;;;;;;;;;;;;7.17;100.00;101256.22;4870483;29;19924;-74
2023/04/04 05:21:25;;;;;;;;;;;;;;;7.17;100.00;101253.59;4868917;29;19920;-74
2023/04/04 05:23:57;;;;;;;;;;;;;;;7.16;100.00;101251.06;4855539;29;19920;-75
2023/04/04 05:26:25;;;;;;;;;;;;;;;7.12;100.00;101252.25;4858711;29;19916;-74
2023/04/04 05:28:58;;;;;;;;;;;;;;;7.09;100.00;101258.53;4881549;29;19922;-75
2023/04/04 05:31:27;;;;;;;;;;;;;;;7.09;100.00;101257.69;4845845;29;19924;-75
2023/04/04 05:33:55;;;;;;;;;;;;;;;7.09;100.00;101257.69;4833550;29;20304;-74
2023/04/04 05:36:31;;;;;;;;;;;;;;;7.09;100.00;101255.06;4851033;29;20403;-74
2023/04/04 05:39:04;;;;;;;;;;;;;;;7.06;100.00;101259.56;4859762;29;19920;-75
2023/04/04 05:41:36;;;;;;;;;;;;;;;7.03;100.00;101267.66;4860337;29;19917;-75
2023/04/04 05:44:13;;;;;;;;;;;;;;;7.04;100.00;101271.97;4856681;29;20426;-74
2023/04/04 05:46:43;;;;;;;;;;;;;;;7.04;100.00;101271.97;4878937;29;19923;-75
2023/04/04 05:49:11;;;;;;;;;;;;;;;7.06;100.00;101263.97;4879844;29;19955;-75
2023/04/04 05:51:44;;;;;;;;;;;;;;;7.05;100.00;101268.41;4850249;29;19951;-75
2023/04/04 05:54:14;;;;;;;;;;;;;;;7.05;100.00;101272.81;4857484;29;20273;-75
2023/04/04 05:56:42;;;;;;;;;;;;;;;7.06;100.00;101263.97;4843819;29;19928;-75
2023/04/04 05:59:25;;;;;;;;;;;;;;;7.07;100.00;101271.75;4859462;29;19948;-75
2023/04/04 06:02:00;;;;;;;;;;;;;;;7.08;100.00;101275.25;4873838;29;19968;-75
2023/04/04 06:04:28;;;;;;;;;;;;;;;7.09;100.00;101262.97;4882018;29;19916;-75
2023/04/04 06:06:57;;;;;;;;;;;;;;;7.08;100.00;101270.00;4864670;29;19999;-75
2023/04/04 06:09:26;;;;;;;;;;;;;;;7.09;100.00;101290.06;4854885;29;20463;-75
2023/04/04 06:11:54;;;;;;;;;;;;;;;7.11;100.00;101277.69;4872340;29;19928;-75
2023/04/04 06:14:23;;;;;;;;;;;;;;;7.11;100.00;101276.81;4867979;29;19977;-75
2023/04/04 06:16:51;;;;;;;;;;;;;;;7.11;100.00;101276.81;4879594;29;19916;-75
2023/04/04 06:19:20;;;;;;;;;;;;;;;7.13;100.00;101273.16;4851004;29;20377;-75
2023/04/04 06:21:47;;;;;;;;;;;;;;;7.12;100.00;101271.47;4878467;29;19924;-75
2023/04/04 06:24:16;;;;;;;;;;;;;;;7.09;100.00;101273.47;4861099;29;20032;-75
2023/04/04 06:26:44;;;;;;;;;;;;;;;7.10;100.00;101268.13;4874941;29;19923;-75
2023/04/04 06:29:13;;;;;;;;;;;;;;;7.12;100.00;101281.16;4863739;29;20421;-75
2023/04/04 06:31:41;;;;;;;;;;;;;;;7.15;100.00;101273.88;4881630;29;19932;-75
2023/04/04 06:34:15;;;;;;;;;;;;;;;7.16;100.00;101274.75;4879396;29;19923;-75
2023/04/04 06:36:53;;;;;;;;;;;;;;;7.16;100.00;101259.81;4848425;29;19916;-75
2023/04/04 06:39:24;;;;;;;;;;;;;;;7.18;100.00;101249.19;4880654;29;19920;-74
2023/04/04 06:41:54;;;;;;;;;;;;;;;7.16;100.00;101256.34;4862441;29;19928;-74
2023/04/04 06:44:26;;;;;;;;;;;;;;;7.14;100.00;101260.84;4851785;29;19924;-74
2023/04/04 06:46:56;;;;;;;;;;;;;;;7.15;100.00;101266.00;4874880;29;19927;-75
2023/04/04 06:49:25;;;;;;;;;;;;;;;7.18;100.00;101262.34;4873041;29;19963;-75
2023/04/04 06:51:53;;;;;;;;;;;;;;;7.18;100.00;101273.69;4844019;29;19917;-75
2023/04/04 06:54:21;;;;;;;;;;;;;;;7.22;100.00;101265.59;4854352;29;19921;-75
2023/04/04 06:56:48;;;;;;;;;;;;;;;7.24;100.00;101272.47;4859471;29;19922;-75
2023/04/04 06:59:17;;;;;;;;;;;;;;;7.29;100.00;101277.41;4865050;29;20023;-75
2023/04/04 07:01:45;;;;;;;;;;;;;;;7.31;100.00;101273.72;4873874;29;20035;-74
2023/04/04 07:04:15;;;;;;;;;;;;;;;7.36;100.00;101280.47;4869869;29;19916;-75
2023/04/04 07:06:43;;;;;;;;;;;;;;;7.37;100.00;101276.88;4857010;29;20501;-75
2023/04/04 07:09:11;;;;;;;;;;;;;;;7.38;100.00;101262.78;4888690;29;20031;-75
2023/04/04 07:11:41;;;;;;;;;;;;;;;7.38;100.00;101261.00;4883311;29;19990;-75
2023/04/04 07:14:11;;;;;;;;;;;;;;;7.39;100.00;101253.97;4883367;29;19917;-75
2023/04/04 07:16:39;;;;;;;;;;;;;;;7.42;100.00;101256.41;4874863;29;20392;-75
2023/04/04 07:19:07;;;;;;;;;;;;;;;7.43;100.00;101269.44;4855579;29;19931;-75
2023/04/04 07:21:37;;;;;;;;;;;;;;;7.43;100.00;101261.56;4860944;29;19951;-74
2023/04/04 07:24:06;;;;;;;;;;;;;;;7.42;100.00;101259.84;4858588;29;19924;-74
2023/04/04 07:26:34;;;;;;;;;;;;;;;7.42;100.00;101257.22;4884995;29;19927;-74
2023/04/04 07:29:03;;;;;;;;;;;;;;;7.47;100.00;101245.56;4869412;29;19920;-74
2023/04/04 07:31:30;;;;;;;;;;;;;;;7.50;100.00;101240.91;4874811;29;19989;-74
2023/04/04 07:33:58;;;;;;;;;;;;;;;7.48;100.00;101239.34;4885779;29;20286;-75
2023/04/04 07:36:26;;;;;;;;;;;;;;;7.50;100.00;101246.16;4867645;29;20503;-75
2023/04/04 07:38:54;;;;;;;;;;;;;;;7.62;100.00;101243.66;4871638;29;19936;-74
2023/04/04 07:41:22;;;;;;;;;;;;;;;7.66;100.00;101232.81;4854678;29;19924;-74
2023/04/04 07:43:51;;;;;;;;;;;;;;;7.74;100.00;101237.53;4877129;29;19929;-77
2023/04/04 07:46:21;;;;;;;;;;;;;;;7.78;100.00;101230.28;4853010;29;20013;-77
2023/04/04 07:48:49;;;;;;;;;;;;;;;7.78;100.00;101232.91;4884611;29;19971;-77
2023/04/04 07:51:22;;;;;;;;;;;;;;;7.78;100.00;101233.78;4871050;29;19947;-77
2023/04/04 07:53:50;;;;;;;;;;;;;;;7.80;100.00;101225.78;4864113;29;19931;-77
2023/04/04 07:56:17;;;;;;;;;;;;;;;7.78;100.00;101220.59;4851557;29;19932;-77
2023/04/04 07:58:45;;;;;;;;;;;;;;;7.72;100.00;101223.66;4853221;29;19924;-77
2023/04/04 08:01:14;;;;;;;;;;;;;;;7.75;100.00;101207.66;4881425;29;19976;-77
2023/04/04 08:03:41;;;;;;;;;;;;;;;7.72;100.00;101202.63;4868678;29;20003;-77
2023/04/04 08:06:09;;;;;;;;;;;;;;;7.73;100.00;101206.91;4849615;29;19920;-77
2023/04/04 08:08:37;;;;;;;;;;;;;;;7.73;100.00;101196.41;4864307;29;20621;-77
2023/04/04 08:11:07;;;;;;;;;;;;;;;7.74;100.00;101194.63;4846452;29;19924;-77
2023/04/04 08:13:36;;;;;;;;;;;;;;;7.77;100.00;101184.69;4887914;29;19927;-77
2023/04/04 08:16:03;;;;;;;;;;;;;;;7.79;100.00;101184.59;4851218;29;19928;-77
2023/04/04 08:18:33;;;;;;;;;;;;;;;7.81;100.00;101183.56;4850951;29;19924;-77
2023/04/04 08:21:03;;;;;;;;;;;;;;;7.88;100.00;101191.00;4882179;29;20408;-77
2023/04/04 08:23:33;;;;;;;;;;;;;;;7.97;100.00;101184.25;4848642;29;19932;-77
2023/04/04 08:26:03;;;;;;;;;;;;;;;7.99;100.00;101191.09;4870464;29;19931;-77
2023/04/04 08:28:32;;;;;;;;;;;;;;;8.03;100.00;101187.28;4867424;29;19923;-77
2023/04/04 08:31:02;;;;;;;;;;;;;;;8.07;100.00;101186.09;4864337;29;19927;-77
2023/04/04 08:33:29;;;;;;;;;;;;;;;8.09;100.00;101186.00;4885422;29;20357;-75
2023/04/04 08:35:57;;;;;;;;;;;;;;;8.16;100.00;101191.69;4886009;29;20070;-75
2023/04/04 08:38:25;;;;;;;;;;;;;;;8.20;100.00;101187.88;4858454;29;20433;-74
2023/04/04 08:40:53;;;;;;;;;;;;;;;8.21;100.00;101189.56;4872247;29;19927;-75
2023/04/04 08:43:21;;;;;;;;;;;;;;;8.23;100.00;101199.97;4852822;29;20281;-75
2023/04/04 08:45:49;;;;;;;;;;;;;;;8.31;100.00;101190.56;4871147;29;19931;-75
2023/04/04 08:48:17;;;;;;;;;;;;;;;8.35;100.00;101211.41;4865043;29;19931;-75
2023/04/04 08:50:45;;;;;;;;;;;;;;;8.36;100.00;101215.75;4890078;29;19927;-75
2023/04/04 08:53:14;;;;;;;;;;;;;;;8.48;100.00;101214.88;4866105;29;19923;-75
2023/04/04 08:55:43;;;;;;;;;;;;;;;8.55;100.00;101207.38;4873233;29;20056;-75
2023/04/04 08:58:11;;;;;;;;;;;;;;;8.62;100.00;101213.88;4869107;29;19920;-75
2023/04/04 09:00:41;;;;;;;;;;;;;;;8.69;100.00;101220.38;4870058;29;19934;-75
2023/04/04 09:03:12;;;;;;;;;;;;;;;8.79;100.00;101217.91;4867086;29;20400;-75
2023/04/04 09:05:43;;;;;;;;;;;;;;;8.86;100.00;101220.09;4865804;29;20373;-77
2023/04/04 09:08:13;;;;;;;;;;;;;;;8.93;100.00;101213.41;4871029;29;19947;-77
2023/04/04 09:10:43;;;;;;;;;;;;;;;8.99;100.00;101214.75;4859588;29;20273;-77
2023/04/04 09:13:13;;;;;;;;;;;;;;;8.98;100.00;101213.06;4880808;29;19930;-77
2023/04/04 09:15:48;;;;;;;;;;;;;;;8.96;100.00;101202.63;4869867;29;19924;-77
2023/04/04 09:18:17;;;;;;;;;;;;;;;8.96;100.00;101197.38;4872551;29;19920;-77
2023/04/04 09:20:46;;;;;;;;;;;;;;;8.93;100.00;101198.41;4862367;29;19924;-77
2023/04/04 09:23:16;;;;;;;;;;;;;;;8.99;100.00;101206.84;4876453;29;19920;-77
2023/04/04 09:25:45;;;;;;;;;;;;;;;9.02;100.00;101209.25;4883590;29;19999;-77
2023/04/04 09:28:14;;;;;;;;;;;;;;;9.09;100.00;101221.03;4865710;29;20463;-77
2023/04/04 09:30:43;;;;;;;;;;;;;;;9.19;100.00;101210.59;4861900;29;20003;-77
2023/04/04 09:33:13;;;;;;;;;;;;;;;9.26;100.00;101217.09;4848063;29;20049;-77
2023/04/04 09:35:45;;;;;;;;;;;;;;;9.31;100.00;101219.41;4880948;29;19931;-76
2023/04/04 09:38:14;;;;;;;;;;;;;;;9.26;100.00;101224.16;4870615;29;20034;-77
2023/04/04 09:40:43;;;;;;;;;;;;;;;9.26;100.00;101222.38;4855508;29;19927;-76
2023/04/04 09:43:12;;;;;;;;;;;;;;;9.26;100.00;101221.53;4853752;29;20010;-77
2023/04/04 09:45:44;;;;;;;;;;;;;;;9.21;100.00;101221.88;4865084;29;20270;-77
2023/04/04 09:48:26;;;;;;;;;;;;;;;9.20;100.00;101224.63;4866260;29;20385;-76
2023/04/04 09:50:57;;;;;;;;;;;;;;;9.22;100.00;101214.81;4882443;29;19923;-77
2023/04/04 09:53:28;;;;;;;;;;;;;;;9.23;100.00;101221.75;4866021;29;19945;-77
2023/04/04 09:55:56;;;;;;;;;;;;;;;9.24;100.00;101218.16;4861852;29;19990;-77
2023/04/04 09:58:27;;;;;;;;;;;;;;;9.19;100.00;101210.59;4865479;29;19968;-77
2023/04/04 10:01:01;;;;;;;;;;;;;;;9.12;100.00;101210.25;4868089;29;19920;-76
2023/04/04 10:03:31;;;;;;;;;;;;;;;9.06;100.00;101202.78;4896269;29;19919;-77
2023/04/04 10:06:04;;;;;;;;;;;;;;;9.02;100.00;101203.97;4872533;29;19931;-77
2023/04/04 10:08:34;;;;;;;;;;;;;;;9.08;100.00;101203.50;4869924;29;19923;-77
2023/04/04 10:11:03;;;;;;;;;;;;;;;9.20;100.00;101196.47;4882111;29;19919;-77
2023/04/04 10:13:34;;;;;;;;;;;;;;;9.30;100.00;101189.53;4877835;29;19927;-77
2023/04/04 10:16:04;;;;;;;;;;;;;;;9.39;100.00;101185.34;4893841;29;20392;-77
2023/04/04 10:18:34;;;;;;;;;;;;;;;9.54;100.00;101175.41;4872638;29;20351;-77
2023/04/04 10:21:06;;;;;;;;;;;;;;;9.53;100.00;101173.72;4882280;29;19976;-77
2023/04/04 10:23:35;;;;;;;;;;;;;;;9.51;100.00;101170.34;4892958;29;19927;-77
2023/04/04 10:26:03;;;;;;;;;;;;;;;9.51;100.00;101175.63;4902147;29;19923;-77
2023/04/04 10:28:33;;;;;;;;;;;;;;;9.58;100.00;101183.06;4890408;29;19946;-77
2023/04/04 10:31:16;;;;;;;;;;;;;;;9.60;100.00;101181.16;4875951;29;19927;-77
2023/04/04 10:33:50;;;;;;;;;;;;;;;9.54;100.00;101179.81;4894925;29;20343;-77
2023/04/04 10:36:24;;;;;;;;;;;;;;;9.57;100.00;101178.75;4896604;29;19930;-77
2023/04/04 10:39:13;;;;;;;;;;;;;;;9.64;100.00;101172.03;4877413;29;20019;-76
2023/04/04 10:41:45;;;;;;;;;;;;;;;9.73;100.00;101171.31;4912006;29;20333;-76
2023/04/04 10:44:23;;;;;;;;;;;;;;;9.77;100.00;101164.84;4891716;29;19991;-76
2023/04/04 10:46:54;;;;;;;;;;;;;;;9.86;100.00;101171.19;4867564;29;19930;-77
2023/04/04 10:49:24;;;;;;;;;;;;;;;9.98;100.00;101163.25;4887782;29;20364;-77
2023/04/04 10:51:53;;;;;;;;;;;;;;;10.10;100.00;101159.63;4877266;29;19980;-76
2023/04/04 10:54:21;;;;;;;;;;;;;;;10.17;100.00;101163.47;4874292;29;19988;-77
2023/04/04 10:56:49;;;;;;;;;;;;;;;10.22;100.00;101165.75;4862978;29;20353;-77
2023/04/04 10:59:17;;;;;;;;;;;;;;;10.35;100.00;101154.16;4878758;29;19934;-77
2023/04/04 11:01:58;;;;;;;;;;;;;;;10.39;100.00;101159.06;4884766;29;19919;-77
2023/04/04 11:04:31;;;;;;;;;;;;;;;10.38;100.00;101167.13;4881268;29;19924;-76
2023/04/04 11:07:08;;;;;;;;;;;;;;;10.65;100.00;101164.03;4890806;29;19923;-77
2023/04/04 11:09:50;;;;;;;;;;;;;;;10.85;100.00;101158.06;4897515;29;19931;-77
2023/04/04 11:12:26;;;;;;;;;;;;;;;10.78;100.00;101163.03;4872781;29;19931;-77
2023/04/04 11:14:54;;;;;;;;;;;;;;;10.77;100.00;101156.91;4876453;29;19988;-77
2023/04/04 11:17:41;;;;;;;;;;;;;;;10.90;100.00;101147.94;4887355;29;19923;-77
2023/04/04 11:20:09;;;;;;;;;;;;;;;11.02;100.00;101146.91;4861854;29;20400;-77
2023/04/04 11:22:40;;;;;;;;;;;;;;;11.07;100.00;101133.28;4887853;29;19924;-77
2023/04/04 11:25:26;;;;;;;;;;;;;;;10.97;100.00;101138.53;4888666;29;19935;-76
2023/04/04 11:27:57;;;;;;;;;;;;;;;11.06;100.00;101130.75;4909998;29;19920;-77
2023/04/04 11:30:29;;;;;;;;;;;;;;;11.06;100.00;101120.19;4878533;29;19919;-77
2023/04/04 11:32:58;;;;;;;;;;;;;;;11.11;100.00;101118.84;4902849;29;19927;-77
2023/04/04 11:35:27;;;;;;;;;;;;;;;11.22;100.00;101106.47;4881096;29;19951;-77
2023/04/04 11:37:57;;;;;;;;;;;;;;;11.32;100.00;101099.44;4883651;29;19972;-77
2023/04/04 11:40:38;;;;;;;;;;;;;;;11.39;100.00;101099.72;4890259;29;19938;-77
2023/04/04 11:43:10;;;;;;;;;;;;;;;11.32;100.00;101111.81;4876349;29;19975;-77
2023/04/04 11:45:46;;;;;;;;;;;;;;;11.29;100.00;101113.75;4870587;29;20015;-77
2023/04/04 11:48:16;;;;;;;;;;;;;;;11.25;100.00;101091.19;4893231;29;19928;-77
2023/04/04 11:50:48;;;;;;;;;;;;;;;11.23;100.00;101097.56;4903450;29;20333;-77
2023/04/04 11:53:17;;;;;;;;;;;;;;;11.24;100.00;101096.59;4874982;29;19998;-77
2023/04/04 11:55:49;;;;;;;;;;;;;;;11.22;100.00;101086.16;4891552;29;20011;-77
2023/04/04 11:58:18;;;;;;;;;;;;;;;11.16;100.00;101086.69;4884662;29;19924;-77
2023/04/04 12:00:46;;;;;;;;;;;;;;;11.21;100.00;101075.72;4879042;29;19967;-77
2023/04/04 12:03:17;;;;;;;;;;;;;;;11.40;100.00;101085.53;4901860;29;19934;-77
2023/04/04 12:05:47;;;;;;;;;;;;;;;11.57;100.00;101083.19;4881933;29;19927;-77
2023/04/04 12:08:17;;;;;;;;;;;;;;;11.58;100.00;101061.06;4873722;29;19928;-76
2023/04/04 12:10:47;;;;;;;;;;;;;;;11.66;100.00;101063.84;4905316;29;19931;-77
2023/04/04 12:13:16;;;;;;;;;;;;;;;11.79;100.00;101076.84;4893419;29;19929;-77
2023/04/04 12:15:44;;;;;;;;;;;;;;;11.82;100.00;101084.50;4867432;29;19983;-77
2023/04/04 12:18:21;;;;;;;;;;;;;;;11.98;100.00;101081.34;4861946;29;19923;-77
2023/04/04 12:20:51;;;;;;;;;;;;;;;11.99;100.00;101077.69;4879577;29;20283;-77
2023/04/04 12:23:22;;;;;;;;;;;;;;;12.00;100.00;101076.75;4882529;29;19927;-77
2023/04/04 12:25:53;;;;;;;;;;;;;;;12.07;100.00;101069.06;4876888;29;19930;-77
2023/04/04 12:28:22;;;;;;;;;;;;;;;12.18;100.00;101046.94;4864363;29;19923;-77
2023/04/04 12:30:50;;;;;;;;;;;;;;;12.44;100.00;101043.69;4882959;29;19987;-77
2023/04/04 12:33:18;;;;;;;;;;;;;;;12.64;100.00;101038.38;4898255;29;19924;-77
2023/04/04 12:35:53;;;;;;;;;;;;;;;12.81;100.00;101046.53;4874642;29;19995;-76
2023/04/04 12:38:23;;;;;;;;;;;;;;;12.98;100.00;101044.97;4874453;29;19965;-77
2023/04/04 12:40:53;;;;;;;;;;;;;;;12.96;100.00;101034.50;4890652;29;20019;-76
2023/04/04 12:43:27;;;;;;;;;;;;;;;12.83;100.00;101028.69;4856213;29;20014;-77
2023/04/04 12:45:57;;;;;;;;;;;;;;;12.87;100.00;101014.13;4893163;29;19962;-77
2023/04/04 12:48:27;;;;;;;;;;;;;;;12.93;100.00;101015.38;4911244;29;19926;-77
2023/04/04 12:50:56;;;;;;;;;;;;;;;12.99;100.00;101015.63;4875065;29;19934;-77